Terminal Aerodrome Forecast
Issued by NWS Springfield, MO

Home | Current Version | Previous Version | Text Only | Print | Product List | Glossary On
Versions: 1 2 3 4 5 6 7 8 9 10 11 12 13 14 15 16 17 18 19 20 21 22 23 24 25 26 27 28 29 30
000
FTUS43 KSGF 041100
TAFSGF
TAF
KSGF 041120Z 0412/0512 01012KT P6SM OVC015
     FM041300 01010KT 5SM -FZRAPL BR SCT007 OVC015
      TEMPO 0413/0414 2SM -SNPL BR BKN007
     FM041500 02013KT 1 1/2SM -SN BR OVC007
      TEMPO 0415/0419 1/2SM SN FG VV004
     FM042300 02013KT 3SM -SN BR OVC012
     FM050000 02010KT P6SM SCT020 OVC050
     FM050300 03008KT P6SM OVC070=

USA.gov is the U.S. government's official web portal to all federal, state and local government web resources and services.